Lancashire, United Kingdom
Current Conditions -  °F | °C
As of 2:50 AM on Saturday 22 Nov 2014 (Local Time) from EGGP Reporting Station
Light Rain Light Rain  
Wind Chill: 43°   Ceiling: 800
Heat Index: 48°   Visibility: 4mi
Dew Point: 46°   Wind: 13mph
Humidity: 93%   Direction: 140°SE
Pressure: 29.77"   Gusts: NA
Location:  53.5°N, 2.8°W
Report Text: EGGP 220250Z 14011KT 7000 -RA BKN008 09/08 Q1008
Loading
Personal Weather Stations






























Interactive Weather Map New forecast layout! Learn more

10-Day Weather Forecast

Advertisements
Track Severe Weather on mobile